createdAt,value
2023-03-27T00:00:16.840Z,87.28
2023-03-27T00:02:46.972Z,87.50
2023-03-27T00:05:15.057Z,87.13
2023-03-27T00:07:42.973Z,87.54
2023-03-27T00:10:11.059Z,86.63
2023-03-27T00:12:39.882Z,87.17
2023-03-27T00:15:08.273Z,86.79
2023-03-27T00:17:37.044Z,86.82
2023-03-27T00:20:06.111Z,86.81
2023-03-27T00:22:33.825Z,86.48
2023-03-27T00:25:01.691Z,86.59
2023-03-27T00:27:30.164Z,86.71
2023-03-27T00:29:57.841Z,86.75
2023-03-27T00:32:25.866Z,86.58
2023-03-27T00:34:53.657Z,86.48
2023-03-27T00:37:21.811Z,86.29
2023-03-27T00:39:50.536Z,85.84
2023-03-27T00:42:23.041Z,86.64
2023-03-27T00:44:51.839Z,86.45
2023-03-27T00:47:31.053Z,86.70
2023-03-27T00:50:01.306Z,86.13
2023-03-27T00:52:31.512Z,86.41
2023-03-27T00:55:01.746Z,86.46
2023-03-27T00:57:31.456Z,86.03
2023-03-27T01:00:01.139Z,86.42
2023-03-27T01:02:29.142Z,86.00
2023-03-27T01:04:57.088Z,86.38
2023-03-27T01:07:25.454Z,86.37
2023-03-27T01:09:53.807Z,86.17
2023-03-27T01:12:30.842Z,86.12
2023-03-27T01:15:17.532Z,86.33
2023-03-27T01:18:21.004Z,86.67
2023-03-27T01:21:26.214Z,86.65
2023-03-27T01:24:24.689Z,86.59
2023-03-27T01:27:06.383Z,86.46
2023-03-27T01:29:47.047Z,86.53
2023-03-27T01:32:41.818Z,86.60
2023-03-27T01:35:37.305Z,86.67
2023-03-27T01:38:29.573Z,86.46
2023-03-27T01:41:25.603Z,86.30
2023-03-27T01:43:56.181Z,86.88
2023-03-27T01:46:53.240Z,86.76
2023-03-27T01:50:00.789Z,86.73
2023-03-27T01:52:32.038Z,87.14
2023-03-27T01:55:05.219Z,86.66
2023-03-27T01:57:48.859Z,86.37
2023-03-27T02:00:22.097Z,86.69
2023-03-27T02:03:14.593Z,86.47
2023-03-27T02:05:51.659Z,86.50
2023-03-27T02:08:27.886Z,86.39
2023-03-27T02:11:04.669Z,86.92
2023-03-27T02:13:41.101Z,86.65
2023-03-27T02:16:12.483Z,86.62
2023-03-27T02:18:47.685Z,86.41
2023-03-27T02:21:16.490Z,86.61
2023-03-27T02:23:44.966Z,86.65
2023-03-27T02:26:14.061Z,86.56
2023-03-27T02:28:54.408Z,86.25
2023-03-27T02:31:41.270Z,86.49
2023-03-27T02:34:26.331Z,86.82
2023-03-27T02:37:19.891Z,86.76
2023-03-27T02:40:27.718Z,86.94
2023-03-27T02:43:19.928Z,86.73
2023-03-27T02:46:09.179Z,86.94
2023-03-27T02:48:40.909Z,86.84
2023-03-27T02:51:16.584Z,87.13
2023-03-27T02:54:12.774Z,86.85
2023-03-27T02:56:46.459Z,86.78
2023-03-27T02:59:36.838Z,87.19
2023-03-27T03:02:09.645Z,87.40
2023-03-27T03:04:57.256Z,87.30
2023-03-27T03:07:38.308Z,86.90
2023-03-27T03:10:09.716Z,87.37
2023-03-27T03:12:38.025Z,87.42
2023-03-27T03:15:08.119Z,87.72
2023-03-27T03:17:37.501Z,87.81
2023-03-27T03:20:07.467Z,87.62
2023-03-27T03:22:36.423Z,87.57
2023-03-27T03:25:04.866Z,87.21
2023-03-27T03:27:34.197Z,87.68
2023-03-27T03:30:16.577Z,87.54
2023-03-27T03:33:00.234Z,87.34
2023-03-27T03:35:28.374Z,87.47
2023-03-27T03:37:59.491Z,87.37
2023-03-27T03:40:28.934Z,87.63
2023-03-27T03:42:59.049Z,87.22
2023-03-27T03:45:29.725Z,87.03
2023-03-27T03:47:57.893Z,87.09
2023-03-27T03:50:25.873Z,87.56
2023-03-27T03:52:53.747Z,87.67
2023-03-27T03:55:21.405Z,87.29
2023-03-27T03:57:50.267Z,86.95
2023-03-27T04:00:26.916Z,87.33
2023-03-27T04:02:57.257Z,87.67
2023-03-27T04:05:26.149Z,87.50
2023-03-27T04:07:59.496Z,87.20
2023-03-27T04:10:27.904Z,87.30
2023-03-27T04:12:58.607Z,87.05
2023-03-27T04:15:33.291Z,87.22
2023-03-27T04:18:20.294Z,87.33
2023-03-27T04:20:54.507Z,87.15
2023-03-27T04:23:30.510Z,86.92
2023-03-27T04:26:00.442Z,87.04
2023-03-27T04:28:38.495Z,86.86
2023-03-27T04:31:26.368Z,86.75
2023-03-27T04:34:14.438Z,86.58
2023-03-27T04:37:03.674Z,86.36
2023-03-27T04:39:37.310Z,86.62
2023-03-27T04:42:05.743Z,86.86
2023-03-27T04:44:35.105Z,86.33
2023-03-27T04:47:03.861Z,86.42
2023-03-27T04:49:38.708Z,86.52
2023-03-27T04:52:18.102Z,86.24
2023-03-27T04:54:46.817Z,86.29
2023-03-27T04:57:16.144Z,85.68
2023-03-27T04:59:44.195Z,85.55
2023-03-27T05:02:33.799Z,85.96
2023-03-27T05:05:09.176Z,86.07
2023-03-27T05:07:38.078Z,86.32
2023-03-27T05:10:08.728Z,86.52
2023-03-27T05:12:43.008Z,86.46
2023-03-27T05:15:15.071Z,86.94
2023-03-27T05:17:47.256Z,86.63
2023-03-27T05:20:17.081Z,86.53
2023-03-27T05:22:45.987Z,87.10
2023-03-27T05:25:23.391Z,86.82
2023-03-27T05:27:52.391Z,86.86
2023-03-27T05:30:22.704Z,86.54
2023-03-27T05:32:59.553Z,86.48
2023-03-27T05:35:30.287Z,86.08
2023-03-27T05:37:59.604Z,86.52
2023-03-27T05:40:34.378Z,86.23
2023-03-27T05:43:03.474Z,86.50
2023-03-27T05:45:33.399Z,86.26
2023-03-27T05:48:02.935Z,86.47
2023-03-27T05:50:35.482Z,86.43
2023-03-27T05:53:10.301Z,86.68
2023-03-27T05:55:49.797Z,86.92
2023-03-27T05:58:41.745Z,86.52
2023-03-27T06:01:11.257Z,86.72
2023-03-27T06:03:39.485Z,86.75
2023-03-27T06:06:15.494Z,86.76
2023-03-27T06:08:46.264Z,87.14
2023-03-27T06:11:17.738Z,87.36
2023-03-27T06:13:46.729Z,87.33
2023-03-27T06:16:26.128Z,87.38
2023-03-27T06:19:26.238Z,87.83
2023-03-27T06:21:54.065Z,87.86
2023-03-27T06:24:22.531Z,87.85
2023-03-27T06:26:51.116Z,88.14
2023-03-27T06:29:21.342Z,87.97
2023-03-27T06:31:51.791Z,88.07
2023-03-27T06:34:39.868Z,87.93
2023-03-27T06:37:37.092Z,87.60
2023-03-27T06:40:09.812Z,87.67
2023-03-27T06:42:41.172Z,88.30
2023-03-27T06:45:38.383Z,88.01
2023-03-27T06:48:37.837Z,88.05
2023-03-27T06:51:08.111Z,88.08
2023-03-27T06:53:38.057Z,87.89
2023-03-27T06:56:07.095Z,87.94
2023-03-27T06:58:54.685Z,88.09
2023-03-27T07:01:27.726Z,87.88
2023-03-27T07:04:18.828Z,87.78
2023-03-27T07:06:54.504Z,88.37
2023-03-27T07:09:22.373Z,88.05
2023-03-27T07:12:00.430Z,88.02
2023-03-27T07:14:31.127Z,88.04
2023-03-27T07:16:59.393Z,87.36
2023-03-27T07:19:31.957Z,87.09
2023-03-27T07:22:12.656Z,87.28
2023-03-27T07:24:41.614Z,86.65
2023-03-27T07:27:11.248Z,86.65
2023-03-27T07:29:39.354Z,85.75
2023-03-27T07:32:09.275Z,85.24
2023-03-27T07:34:43.486Z,85.27
2023-03-27T07:37:17.049Z,84.87
2023-03-27T07:40:06.996Z,84.78
2023-03-27T07:42:35.503Z,85.33
2023-03-27T07:45:06.678Z,85.10
2023-03-27T07:47:36.882Z,84.49
2023-03-27T07:50:10.450Z,83.71
2023-03-27T07:52:43.776Z,83.48
2023-03-27T07:55:16.163Z,83.50
2023-03-27T07:58:00.793Z,83.06
2023-03-27T08:00:36.090Z,83.15
2023-03-27T08:03:16.791Z,82.91
2023-03-27T08:05:56.727Z,82.25
2023-03-27T08:08:26.653Z,82.46
2023-03-27T08:10:59.352Z,82.43
2023-03-27T08:13:33.668Z,83.00
2023-03-27T08:16:05.620Z,83.33
2023-03-27T08:18:33.867Z,82.63
2023-03-27T08:21:03.928Z,82.52
2023-03-27T08:23:33.951Z,82.26
2023-03-27T08:26:20.999Z,82.38
2023-03-27T08:28:58.725Z,81.87
2023-03-27T08:31:31.477Z,82.75
2023-03-27T08:34:02.182Z,82.24
2023-03-27T08:36:42.780Z,82.88
2023-03-27T08:39:13.486Z,82.52
2023-03-27T08:41:58.235Z,83.30
2023-03-27T08:44:33.522Z,82.83
2023-03-27T08:47:36.163Z,81.80
2023-03-27T08:50:28.995Z,81.60
2023-03-27T08:53:14.799Z,80.67
2023-03-27T08:55:44.321Z,80.09
2023-03-27T08:58:33.740Z,79.71
2023-03-27T09:01:41.444Z,79.78
2023-03-27T09:04:29.270Z,78.86
2023-03-27T09:07:11.823Z,78.34
2023-03-27T09:10:15.437Z,76.90
2023-03-27T09:13:29.989Z,77.19
2023-03-27T09:16:04.349Z,77.30
2023-03-27T09:18:43.959Z,76.33
2023-03-27T09:21:19.825Z,75.91
2023-03-27T09:23:49.179Z,76.04
2023-03-27T09:26:36.876Z,75.66
2023-03-27T09:29:22.457Z,75.45
2023-03-27T09:31:59.102Z,75.36
2023-03-27T09:34:30.627Z,74.30
2023-03-27T09:36:59.343Z,75.01
2023-03-27T09:39:32.840Z,74.13
2023-03-27T09:42:20.292Z,73.99
2023-03-27T09:44:52.837Z,74.21
2023-03-27T09:47:22.496Z,73.87
2023-03-27T09:49:58.065Z,74.09
2023-03-27T09:52:41.984Z,74.01
2023-03-27T09:55:31.804Z,73.94
2023-03-27T09:58:24.935Z,72.85
2023-03-27T10:01:16.215Z,73.08
2023-03-27T10:03:54.195Z,71.87
2023-03-27T10:06:44.765Z,72.22
2023-03-27T10:09:29.342Z,72.50
2023-03-27T10:12:08.155Z,71.26
2023-03-27T10:14:45.930Z,71.80
2023-03-27T10:17:38.170Z,72.08
2023-03-27T10:20:19.700Z,72.26
2023-03-27T10:23:01.625Z,72.25
2023-03-27T10:25:38.058Z,71.90
2023-03-27T10:28:36.338Z,73.03
2023-03-27T10:31:31.509Z,72.07
2023-03-27T10:34:29.451Z,72.59
2023-03-27T10:37:28.168Z,73.74
2023-03-27T10:40:36.617Z,72.96
2023-03-27T10:43:14.420Z,72.80
2023-03-27T10:45:48.192Z,72.47
2023-03-27T10:48:33.049Z,72.78
2023-03-27T10:51:05.845Z,73.37
2023-03-27T10:54:09.634Z,72.47
2023-03-27T10:57:08.827Z,72.01
2023-03-27T10:59:45.855Z,72.37
2023-03-27T11:02:33.240Z,71.40
2023-03-27T11:05:43.895Z,72.33
2023-03-27T11:08:43.035Z,72.71
2023-03-27T11:11:16.986Z,71.97
2023-03-27T11:13:48.940Z,71.82
2023-03-27T11:16:22.250Z,72.36
2023-03-27T11:19:41.268Z,71.35
2023-03-27T11:22:43.410Z,70.62
2023-03-27T11:25:51.750Z,71.27
2023-03-27T11:28:39.801Z,71.49
2023-03-27T11:31:25.959Z,71.63
2023-03-27T11:34:02.114Z,72.13
2023-03-27T11:36:35.177Z,72.25
2023-03-27T11:39:44.086Z,73.23
2023-03-27T11:42:19.553Z,72.22
2023-03-27T11:44:50.824Z,72.81
2023-03-27T11:47:55.927Z,71.83
2023-03-27T11:51:14.893Z,72.67
2023-03-27T11:54:00.160Z,72.59
2023-03-27T11:56:56.576Z,73.68
2023-03-27T11:59:57.257Z,74.02
2023-03-27T12:02:49.916Z,74.03
2023-03-27T12:05:57.477Z,73.74
2023-03-27T12:08:46.019Z,72.77
2023-03-27T12:11:14.374Z,72.91
2023-03-27T12:14:18.464Z,74.48
2023-03-27T12:17:02.624Z,75.06
2023-03-27T12:20:22.199Z,74.15
2023-03-27T12:23:08.422Z,74.70
2023-03-27T12:25:56.271Z,73.59
2023-03-27T12:29:23.859Z,74.12
2023-03-27T12:32:33.811Z,75.53
2023-03-27T12:35:22.436Z,74.28
2023-03-27T12:37:59.627Z,72.89
2023-03-27T12:40:48.999Z,73.48
2023-03-27T12:43:21.588Z,72.93
2023-03-27T12:46:13.203Z,73.47
2023-03-27T12:48:58.750Z,72.73
2023-03-27T12:52:04.407Z,72.78
2023-03-27T12:55:18.525Z,73.19
2023-03-27T12:58:03.159Z,72.55
2023-03-27T13:01:00.557Z,73.41
2023-03-27T13:04:19.862Z,73.44
2023-03-27T13:07:06.945Z,72.27
2023-03-27T13:10:13.426Z,74.33
2023-03-27T13:12:57.793Z,73.70
2023-03-27T13:15:43.585Z,74.45
2023-03-27T13:18:24.129Z,74.03
2023-03-27T13:21:07.654Z,74.31
2023-03-27T13:23:54.756Z,74.41
2023-03-27T13:26:46.749Z,74.09
2023-03-27T13:29:17.798Z,72.70
2023-03-27T13:31:49.434Z,73.23
2023-03-27T13:34:41.715Z,73.87
2023-03-27T13:37:15.004Z,73.30
2023-03-27T13:39:55.710Z,73.31
2023-03-27T13:42:36.015Z,72.01
2023-03-27T13:45:26.427Z,73.59
2023-03-27T13:48:48.572Z,72.21
2023-03-27T13:51:26.668Z,70.66
2023-03-27T13:54:34.122Z,70.93
2023-03-27T13:57:16.256Z,71.47
2023-03-27T14:00:10.429Z,69.92
2023-03-27T14:03:02.194Z,71.38
2023-03-27T14:05:56.476Z,69.80
2023-03-27T14:08:35.480Z,70.41
2023-03-27T14:11:34.689Z,69.38
2023-03-27T14:14:21.890Z,68.42
2023-03-27T14:16:52.012Z,69.96
2023-03-27T14:19:45.317Z,69.91
2023-03-27T14:22:24.167Z,69.78
2023-03-27T14:25:03.091Z,68.90
2023-03-27T14:27:46.886Z,69.15
2023-03-27T14:30:27.112Z,68.12
2023-03-27T14:33:20.085Z,69.89
2023-03-27T14:35:57.605Z,69.92
2023-03-27T14:38:26.261Z,69.18
2023-03-27T14:41:06.555Z,70.31
2023-03-27T14:43:52.271Z,70.65
2023-03-27T14:46:22.926Z,70.52
2023-03-27T14:48:58.071Z,70.64
2023-03-27T14:51:37.158Z,70.96
2023-03-27T14:57:19.323Z,72.09
2023-03-27T14:59:54.448Z,71.96
2023-03-27T15:02:26.756Z,73.35
2023-03-27T15:05:24.666Z,73.51
2023-03-27T15:08:00.545Z,73.40
2023-03-27T15:10:53.101Z,74.37
2023-03-27T15:13:47.996Z,74.55
2023-03-27T15:16:25.155Z,73.80
2023-03-27T15:19:15.513Z,73.83
2023-03-27T15:21:57.829Z,74.41
2023-03-27T15:24:33.538Z,75.05
2023-03-27T15:27:02.176Z,75.33
2023-03-27T15:29:42.815Z,75.05
2023-03-27T15:32:18.922Z,74.84
2023-03-27T15:34:58.172Z,74.91
2023-03-27T15:37:28.798Z,74.04
2023-03-27T15:40:22.598Z,74.87
2023-03-27T15:43:03.298Z,76.13
2023-03-27T15:45:41.578Z,77.67
2023-03-27T15:48:22.209Z,78.03
2023-03-27T15:51:07.721Z,77.34
2023-03-27T15:53:58.840Z,78.68
2023-03-27T15:56:39.551Z,78.94
2023-03-27T15:59:09.916Z,79.01
2023-03-27T16:01:52.436Z,80.08
2023-03-27T16:04:22.494Z,80.45
2023-03-27T16:06:52.513Z,80.41
2023-03-27T16:09:26.165Z,81.26
2023-03-27T16:11:54.917Z,81.40
2023-03-27T16:14:29.840Z,80.65
2023-03-27T16:17:12.549Z,80.83
2023-03-27T16:19:48.924Z,80.81
2023-03-27T16:22:31.430Z,80.45
2023-03-27T16:25:00.673Z,80.33
2023-03-27T16:27:40.005Z,80.90
2023-03-27T16:30:10.822Z,81.49
2023-03-27T16:32:38.559Z,81.91
2023-03-27T16:35:07.445Z,81.39
2023-03-27T16:37:35.482Z,80.99
2023-03-27T16:40:03.348Z,81.04
2023-03-27T16:42:31.454Z,81.37
2023-03-27T16:44:59.286Z,81.92
2023-03-27T16:47:27.017Z,81.88
2023-03-27T16:50:10.214Z,82.24
2023-03-27T16:52:38.540Z,82.35
2023-03-27T16:55:07.725Z,82.98
2023-03-27T16:57:36.553Z,82.60
2023-03-27T17:00:05.747Z,82.61
2023-03-27T17:02:35.092Z,83.28
2023-03-27T17:05:07.949Z,83.47
2023-03-27T17:07:36.233Z,83.15
2023-03-27T17:10:04.383Z,83.32
2023-03-27T17:12:32.475Z,83.44
2023-03-27T17:15:00.652Z,82.79
2023-03-27T17:17:31.973Z,82.71
2023-03-27T17:20:00.806Z,82.81
2023-03-27T17:22:30.132Z,82.75
2023-03-27T17:25:01.294Z,83.33
2023-03-27T17:27:29.277Z,82.79
2023-03-27T17:29:57.657Z,82.51
2023-03-27T17:32:26.946Z,83.25
2023-03-27T17:34:55.079Z,83.68
2023-03-27T17:37:23.520Z,82.91
2023-03-27T17:39:51.528Z,83.22
2023-03-27T17:42:19.169Z,82.97
2023-03-27T17:44:46.862Z,83.63
2023-03-27T17:47:14.636Z,83.37
2023-03-27T17:49:43.377Z,83.72
2023-03-27T17:52:12.505Z,84.10
2023-03-27T17:54:40.701Z,83.37
2023-03-27T17:57:08.428Z,84.00
2023-03-27T17:59:36.741Z,83.41
2023-03-27T18:02:04.762Z,83.70
2023-03-27T18:04:33.287Z,84.03
2023-03-27T18:07:01.339Z,83.82
2023-03-27T18:09:32.538Z,83.83
2023-03-27T18:12:00.289Z,83.74
2023-03-27T18:14:28.025Z,83.74
2023-03-27T18:16:55.743Z,84.46
2023-03-27T18:19:25.203Z,84.22
2023-03-27T18:21:52.813Z,84.66
2023-03-27T18:24:20.512Z,85.02
2023-03-27T18:26:52.418Z,84.86
2023-03-27T18:29:21.392Z,84.88
2023-03-27T18:31:49.242Z,84.71
2023-03-27T18:34:17.142Z,84.43
2023-03-27T18:36:50.751Z,84.68
2023-03-27T18:39:18.949Z,84.56
2023-03-27T18:41:46.892Z,84.49
2023-03-27T18:44:14.708Z,84.66
2023-03-27T18:46:42.361Z,84.47
2023-03-27T18:49:21.607Z,84.50
2023-03-27T18:51:51.798Z,84.04
2023-03-27T18:54:19.527Z,84.32
2023-03-27T18:56:48.865Z,83.78
2023-03-27T18:59:16.772Z,83.85
2023-03-27T19:01:44.489Z,84.02
2023-03-27T19:04:13.559Z,84.18
2023-03-27T19:06:42.951Z,83.65
2023-03-27T19:09:10.749Z,83.88
2023-03-27T19:11:38.448Z,83.87
2023-03-27T19:14:11.256Z,83.77
2023-03-27T19:16:58.061Z,84.15
2023-03-27T19:19:46.594Z,83.75
2023-03-27T19:22:14.654Z,83.40
2023-03-27T19:24:47.040Z,83.75
2023-03-27T19:27:23.638Z,84.03
2023-03-27T19:29:55.420Z,83.30
2023-03-27T19:32:24.559Z,83.32
2023-03-27T19:34:52.512Z,83.54
2023-03-27T19:37:20.382Z,83.00
2023-03-27T19:39:48.079Z,83.16
2023-03-27T19:42:15.973Z,82.57
2023-03-27T19:44:44.072Z,83.13
2023-03-27T19:47:11.779Z,83.28
2023-03-27T19:49:40.165Z,82.77
2023-03-27T19:52:17.054Z,82.96
2023-03-27T19:54:44.701Z,83.51
2023-03-27T19:57:12.500Z,82.83
2023-03-27T19:59:40.335Z,83.14
2023-03-27T20:02:09.746Z,83.36
2023-03-27T20:04:37.490Z,83.05
2023-03-27T20:07:07.159Z,83.08
2023-03-27T20:09:34.814Z,83.46
2023-03-27T20:12:04.231Z,83.51
2023-03-27T20:14:32.534Z,83.42
2023-03-27T20:17:00.422Z,83.71
2023-03-27T20:19:30.543Z,83.89
2023-03-27T20:22:00.974Z,83.25
2023-03-27T20:24:29.403Z,83.83
2023-03-27T20:27:00.290Z,84.04
2023-03-27T20:29:28.065Z,83.45
2023-03-27T20:31:55.885Z,84.16
2023-03-27T20:34:24.154Z,83.77
2023-03-27T20:36:55.023Z,83.92
2023-03-27T20:39:52.116Z,83.97
2023-03-27T20:42:23.237Z,84.46
2023-03-27T20:44:58.568Z,84.51
2023-03-27T20:47:26.483Z,84.65
2023-03-27T20:49:59.073Z,84.92
2023-03-27T20:52:26.821Z,85.57
2023-03-27T20:54:54.613Z,85.63
2023-03-27T20:57:22.718Z,85.90
2023-03-27T20:59:50.957Z,85.78
2023-03-27T21:02:19.644Z,86.46
2023-03-27T21:04:47.920Z,86.46
2023-03-27T21:07:16.205Z,86.88
2023-03-27T21:09:46.751Z,87.23
2023-03-27T21:12:14.412Z,86.95
2023-03-27T21:14:42.113Z,87.14
2023-03-27T21:17:23.541Z,87.16
2023-03-27T21:19:54.707Z,87.48
2023-03-27T21:22:22.460Z,87.18
2023-03-27T21:24:50.506Z,87.58
2023-03-27T21:27:18.284Z,87.96
2023-03-27T21:29:45.964Z,87.81
2023-03-27T21:32:13.729Z,87.88
2023-03-27T21:34:47.398Z,87.96
2023-03-27T21:37:15.174Z,88.18
2023-03-27T21:39:42.881Z,88.04
2023-03-27T21:42:10.638Z,88.28
2023-03-27T21:44:38.305Z,88.66
2023-03-27T21:47:05.996Z,88.57
2023-03-27T21:49:33.745Z,88.80
2023-03-27T21:52:01.374Z,88.15
2023-03-27T21:54:28.987Z,88.61
2023-03-27T21:56:56.777Z,88.68
2023-03-27T21:59:25.311Z,88.41
2023-03-27T22:01:53.826Z,88.99
2023-03-27T22:04:21.962Z,88.69
2023-03-27T22:06:49.892Z,88.81
2023-03-27T22:09:18.092Z,89.11
2023-03-27T22:11:45.928Z,89.13
2023-03-27T22:14:13.708Z,88.82
2023-03-27T22:16:41.560Z,89.25
2023-03-27T22:19:09.823Z,89.66
2023-03-27T22:21:37.697Z,89.05
2023-03-27T22:24:06.215Z,89.59
2023-03-27T22:26:37.472Z,89.32
2023-03-27T22:29:09.302Z,89.32
2023-03-27T22:31:37.157Z,89.23
2023-03-27T22:34:05.512Z,89.58
2023-03-27T22:36:33.722Z,89.41
2023-03-27T22:39:01.447Z,89.89
2023-03-27T22:41:29.171Z,89.18
2023-03-27T22:43:56.828Z,89.20
2023-03-27T22:46:24.588Z,89.71
2023-03-27T22:48:56.978Z,89.28
2023-03-27T22:51:25.483Z,89.36
2023-03-27T22:53:53.262Z,89.75
2023-03-27T22:56:21.285Z,89.72
2023-03-27T22:58:49.070Z,89.52
2023-03-27T23:01:16.835Z,89.81
2023-03-27T23:03:44.617Z,89.83
2023-03-27T23:06:19.678Z,90.11
2023-03-27T23:08:50.965Z,90.70
2023-03-27T23:11:19.485Z,90.64
2023-03-27T23:13:47.323Z,90.49
2023-03-27T23:16:15.093Z,90.38
2023-03-27T23:18:42.819Z,90.73
2023-03-27T23:21:12.560Z,90.25
2023-03-27T23:23:41.120Z,89.87
2023-03-27T23:26:09.571Z,90.39
2023-03-27T23:28:40.117Z,90.03
2023-03-27T23:31:11.498Z,89.71
2023-03-27T23:33:41.192Z,89.56
2023-03-27T23:36:11.610Z,89.30
2023-03-27T23:38:39.956Z,89.76
2023-03-27T23:41:08.642Z,89.45
2023-03-27T23:43:55.101Z,89.46
2023-03-27T23:46:22.829Z,89.69
2023-03-27T23:48:50.558Z,89.71
2023-03-27T23:51:18.252Z,89.89
2023-03-27T23:53:46.060Z,90.15
2023-03-27T23:56:13.781Z,89.75
2023-03-27T23:58:41.705Z,90.22
